Lipetsk Airport
UUOL : now visible

Airfield :











YOU CAN JOIN US ON...

 
LOGIN :

Register | Disclaimer

   EN    FR    IT 

 









Legend :    VFR   Marginal VFR   IFR   Intensive IFR   Very Intensive IFR
Visi :
Ceiling :
>= 8 km
>= 3000ft
5 to 8 km
1000 to 3000 ft
1500m to 5 km
500 to 1000 ft
800 to 1500m
200 to 500 ft
< 800m
< 200 ft
Symbols :   Thunderstorms  Fog  Heavy snow  Heavy precipitations  Wind > 20 kt






- Airport Elevation : 584 ft
- IATA code : LPK


UUOL - Lipetsk

CURRENT METAR :
  • 091030Z 34005MPS 290V010 9999 FEW033CB SCT049 24/12 Q1015 R33/090060 NOSIG

EXPIRED METARs :
  • 091000Z 01005MPS 9999 FEW033CB SCT049 24/12 Q1015 R33/090060 NOSIG
  • 090930Z 36005MPS 9999 FEW030CB BKN047 25/12 Q1015 R33/090060 NOSIG
  • 090900Z 02005MPS 330V050 9999 FEW030CB BKN047 25/12 Q1015 R33/090060 NOSIG
  • 090830Z 36006MPS 9999 FEW030CB BKN047 24/12 Q1015 R33/090060 NOSIG
  • 090800Z 02005MPS 9999 BKN043 24/12 Q1015 R33/090060 NOSIG

TAF TAF UUOL
Valid from the 09 at 09:00 until the 09 at 18:00 UTC


090800Z 0909/0918 36005MPS 9999 SCT030
TEMPO 0909/0916 01005G10MPS



MET'MAP, your aeronautical weather chart ! - Copyright ORBIFLY December 2007 - Disclaimer

ORBIFLY MET'MAP TEAM :

Programming & Development : Alexandra Zaïnal
Concept & original design : Baudouin d'Aumeries
Assistance for programming : Marc-Olivier Méhu
Technical & hardware support : Manuel Goepfert

Contact : metmap@orbifly.com




SOURCES & CREDITS :

   NOAA       Earth
Advisory